TAF Text Data
IDs:
Format:
Raw Decoded Include METAR

Data at: 0425 UTC 30 Jun 2022

METAR for:KRYW (Lago Vista/Allen Arp, TX, US)
Text:KRYW 300415Z AUTO 08004KT 10SM CLR 26/15 A3011 RMK AO2 T02570150
Temperature: 25.7°C ( 78°F)
Dewpoint: 15.0°C ( 59°F) [RH = 52%]
Pressure (altimeter):30.11 inches Hg (1019.7 mb)
Winds:from the E (80 degrees) at 5 MPH (4 knots; 2.1 m/s)
Visibility:10 or more sm (16+ km)
Ceiling:at least 12,000 feet AGL
Clouds:sky clear below 12,000 feet AGL
QC Flag:automated observation with no human augmentation

TAF for:KRYW (Lago Vista/Allen Arp, TX, US)
Text:No data found